Time;durP1;ratioP1;P1;durP2;ratioP2;P2;SDS_P1;SDS_P2;PMS_P1;PMS_P2;Temp;Humidity;BMP_temperature;BMP_pressure;BME280_temperature;BME280_humidity;BME280_pressure;Samples;Min_cycle;Max_cycle;Signal;HPM_P1;HPM_P2
2022/10/15 00:01:43;;;;;;;;;13.00;12.00;;;;;;;;116640;1206;24884;-62
2022/10/15 00:04:11;;;;;;;;;16.00;14.00;;;;;;;;116552;1206;25969;-62
2022/10/15 00:06:40;;;;;;;;;13.33;12.00;;;;;;;;116457;1209;25059;-62
2022/10/15 00:09:08;;;;;;;;;12.00;12.00;;;;;;;;116463;1203;25272;-62
2022/10/15 00:11:36;;;;;;;;;6.50;6.50;;;;;;;;116420;1206;24936;-63
2022/10/15 00:14:04;;;;;;;;;12.00;10.00;;;;;;;;116613;1203;24815;-62
2022/10/15 00:16:32;;;;;;;;;10.50;9.50;;;;;;;;116583;1203;25455;-62
2022/10/15 00:19:01;;;;;;;;;10.00;10.00;;;;;;;;116591;1200;24825;-62
2022/10/15 00:21:29;;;;;;;;;12.33;11.33;;;;;;;;116517;1198;25407;-62
2022/10/15 00:23:57;;;;;;;;;12.00;10.00;;;;;;;;116548;1195;25529;-63
2022/10/15 00:26:27;;;;;;;;;10.00;10.00;;;;;;;;116586;1211;24994;-62
2022/10/15 00:28:58;;;;;;;;;13.00;10.00;;;;;;;;116433;1206;25254;-62
2022/10/15 00:31:28;;;;;;;;;11.00;10.00;;;;;;;;116562;1202;25018;-62
2022/10/15 00:33:58;;;;;;;;;12.00;11.00;;;;;;;;116587;1200;25238;-62
2022/10/15 00:36:30;;;;;;;;;9.00;7.00;;;;;;;;116536;1203;25037;-63
2022/10/15 00:38:58;;;;;;;;;8.00;7.00;;;;;;;;116595;1197;24882;-62
2022/10/15 00:41:32;;;;;;;;;9.00;7.00;;;;;;;;116445;1210;24938;-62
2022/10/15 00:44:27;;;;;;;;;11.00;10.00;;;;;;;;116607;1200;25481;-62
2022/10/15 00:47:09;;;;;;;;;11.00;11.00;;;;;;;;116586;1209;24677;-62
2022/10/15 00:49:42;;;;;;;;;11.00;11.00;;;;;;;;116564;1211;25857;-62
2022/10/15 00:52:20;;;;;;;;;14.50;12.50;;;;;;;;116482;1211;25704;-62
2022/10/15 00:54:52;;;;;;;;;11.00;10.67;;;;;;;;116448;1203;24907;-62
2022/10/15 00:57:20;;;;;;;;;8.25;8.00;;;;;;;;116566;1197;24911;-62
2022/10/15 00:59:52;;;;;;;;;14.00;12.00;;;;;;;;116787;1195;25162;-62
2022/10/15 01:02:20;;;;;;;;;12.00;12.00;;;;;;;;116590;1197;25403;-62
2022/10/15 01:04:49;;;;;;;;;9.00;9.00;;;;;;;;116477;1202;24956;-62
2022/10/15 01:07:18;;;;;;;;;11.00;9.00;;;;;;;;116585;1209;25132;-62
2022/10/15 01:09:47;;;;;;;;;9.00;8.00;;;;;;;;116803;1200;25158;-62
2022/10/15 01:12:28;;;;;;;;;12.00;10.00;;;;;;;;116476;1206;25716;-62
2022/10/15 01:15:11;;;;;;;;;12.00;10.00;;;;;;;;116481;1205;25518;-62
2022/10/15 01:17:41;;;;;;;;;14.00;9.33;;;;;;;;116606;1200;24764;-62
2022/10/15 01:20:37;;;;;;;;;9.00;9.00;;;;;;;;116804;1196;24778;-63
2022/10/15 01:23:19;;;;;;;;;12.00;12.00;;;;;;;;116600;1206;24903;-62
2022/10/15 01:26:00;;;;;;;;;10.50;10.00;;;;;;;;116579;1200;24789;-62
2022/10/15 01:28:40;;;;;;;;;14.50;11.00;;;;;;;;116602;1202;25273;-62
2022/10/15 01:31:48;;;;;;;;;10.67;10.67;;;;;;;;116625;1200;24840;-62
2022/10/15 01:34:26;;;;;;;;;9.00;7.00;;;;;;;;116600;1203;25310;-62
2022/10/15 01:36:54;;;;;;;;;;;;;;;;;;116574;1205;24906;-63
2022/10/15 01:39:28;;;;;;;;;12.00;10.00;;;;;;;;116782;1209;25412;-62
2022/10/15 01:42:03;;;;;;;;;9.00;8.00;;;;;;;;116588;1204;25180;-62
2022/10/15 01:44:35;;;;;;;;;11.00;10.00;;;;;;;;116634;1200;24889;-62
2022/10/15 01:47:06;;;;;;;;;9.00;9.00;;;;;;;;116623;1201;25200;-62
2022/10/15 01:49:38;;;;;;;;;10.33;9.33;;;;;;;;116617;1200;25292;-62
2022/10/15 01:52:20;;;;;;;;;10.00;9.00;;;;;;;;116560;1196;25662;-62
2022/10/15 01:54:49;;;;;;;;;8.67;8.67;;;;;;;;116444;1208;24936;-62
2022/10/15 01:57:19;;;;;;;;;11.00;9.67;;;;;;;;116544;1200;25330;-62
2022/10/15 01:59:48;;;;;;;;;8.00;7.00;;;;;;;;116553;1204;24793;-62
2022/10/15 02:02:17;;;;;;;;;8.50;7.50;;;;;;;;116636;1196;25821;-62
2022/10/15 02:04:45;;;;;;;;;9.00;7.50;;;;;;;;116603;1200;25669;-62
2022/10/15 02:07:22;;;;;;;;;9.33;8.00;;;;;;;;116585;1203;24951;-62
2022/10/15 02:10:02;;;;;;;;;8.00;8.00;;;;;;;;116793;1203;25265;-62
2022/10/15 02:12:37;;;;;;;;;10.50;9.00;;;;;;;;116825;1202;25734;-62
2022/10/15 02:15:18;;;;;;;;;8.50;6.50;;;;;;;;116813;1202;25565;-62
2022/10/15 02:18:05;;;;;;;;;9.67;8.00;;;;;;;;116620;1207;24746;-62
2022/10/15 02:20:51;;;;;;;;;11.50;5.50;;;;;;;;116585;1209;25256;-62
2022/10/15 02:23:40;;;;;;;;;11.00;7.00;;;;;;;;116577;1196;25593;-62
2022/10/15 02:26:09;;;;;;;;;9.00;9.00;;;;;;;;116637;1200;24993;-62
2022/10/15 02:28:41;;;;;;;;;9.00;8.00;;;;;;;;116566;1200;24839;-62
2022/10/15 02:31:12;;;;;;;;;11.00;10.50;;;;;;;;116463;1211;24851;-62
2022/10/15 02:33:40;;;;;;;;;10.00;9.00;;;;;;;;116473;1202;25701;-62
2022/10/15 02:36:09;;;;;;;;;6.75;6.75;;;;;;;;116541;1201;25392;-62
2022/10/15 02:38:39;;;;;;;;;10.00;8.00;;;;;;;;116560;1200;25246;-62
2022/10/15 02:41:08;;;;;;;;;7.50;7.00;;;;;;;;116458;1200;25219;-62
2022/10/15 02:43:38;;;;;;;;;11.00;10.00;;;;;;;;116493;1205;25358;-62
2022/10/15 02:46:08;;;;;;;;;11.50;10.00;;;;;;;;116587;1203;24805;-62
2022/10/15 02:48:36;;;;;;;;;8.00;7.00;;;;;;;;116465;1203;25370;-62
2022/10/15 02:51:05;;;;;;;;;11.00;10.00;;;;;;;;116593;1200;24811;-62
2022/10/15 02:53:33;;;;;;;;;9.50;9.00;;;;;;;;116446;1208;24796;-62
2022/10/15 02:56:01;;;;;;;;;6.00;6.00;;;;;;;;116565;1209;24656;-62
2022/10/15 02:58:29;;;;;;;;;5.25;5.25;;;;;;;;116587;1206;25302;-62
2022/10/15 03:00:58;;;;;;;;;9.00;9.00;;;;;;;;116463;1202;25610;-62
2022/10/15 03:03:26;;;;;;;;;9.75;9.25;;;;;;;;116614;1206;25083;-62
2022/10/15 03:05:54;;;;;;;;;7.33;7.33;;;;;;;;116547;1203;24807;-62
2022/10/15 03:08:23;;;;;;;;;8.00;8.00;;;;;;;;116605;1203;25195;-63
2022/10/15 03:10:51;;;;;;;;;10.50;8.50;;;;;;;;116463;1206;25577;-62
2022/10/15 03:13:19;;;;;;;;;9.00;8.00;;;;;;;;116541;1207;25092;-62
2022/10/15 03:15:48;;;;;;;;;7.33;6.67;;;;;;;;116588;1196;24826;-62
2022/10/15 03:18:16;;;;;;;;;10.00;8.00;;;;;;;;116591;1198;25478;-62
2022/10/15 03:20:51;;;;;;;;;7.00;7.00;;;;;;;;116551;1204;24974;-62
2022/10/15 03:23:19;;;;;;;;;8.00;7.50;;;;;;;;116543;1200;25644;-62
2022/10/15 03:25:48;;;;;;;;;5.00;5.00;;;;;;;;116546;1203;25141;-62
2022/10/15 03:28:16;;;;;;;;;8.00;6.00;;;;;;;;116488;1206;26505;-62
2022/10/15 03:30:44;;;;;;;;;7.50;7.50;;;;;;;;116570;1200;25653;-62
2022/10/15 03:33:13;;;;;;;;;7.00;7.00;;;;;;;;116608;1195;25138;-62
2022/10/15 03:35:41;;;;;;;;;7.00;7.00;;;;;;;;116545;1201;25420;-62
2022/10/15 03:38:09;;;;;;;;;7.00;7.00;;;;;;;;116598;1203;25053;-62
2022/10/15 03:40:37;;;;;;;;;9.50;7.00;;;;;;;;116548;1197;25660;-62
2022/10/15 03:43:05;;;;;;;;;7.25;7.00;;;;;;;;116628;1200;24949;-62
2022/10/15 03:45:34;;;;;;;;;6.50;6.50;;;;;;;;116614;1209;24792;-62
2022/10/15 03:48:02;;;;;;;;;7.50;7.50;;;;;;;;116569;1198;24806;-62
2022/10/15 03:50:30;;;;;;;;;6.00;4.50;;;;;;;;116552;1209;25298;-62
2022/10/15 03:53:02;;;;;;;;;7.50;7.50;;;;;;;;116550;1206;25594;-62
2022/10/15 03:55:31;;;;;;;;;4.00;3.00;;;;;;;;116552;1203;25415;-62
2022/10/15 03:57:59;;;;;;;;;7.00;7.00;;;;;;;;116563;1200;25437;-62
2022/10/15 04:00:28;;;;;;;;;10.00;7.00;;;;;;;;116593;1201;25730;-62
2022/10/15 04:02:56;;;;;;;;;8.67;7.00;;;;;;;;116463;1206;24688;-62
2022/10/15 04:05:25;;;;;;;;;6.50;6.50;;;;;;;;116566;1202;24843;-62
2022/10/15 04:07:53;;;;;;;;;7.00;6.00;;;;;;;;116574;1201;25991;-62
2022/10/15 04:10:21;;;;;;;;;6.50;6.00;;;;;;;;116484;1206;25119;-62
2022/10/15 04:12:49;;;;;;;;;6.00;6.00;;;;;;;;116479;1202;25358;-62
2022/10/15 04:15:17;;;;;;;;;8.00;6.00;;;;;;;;116534;1206;25069;-62
2022/10/15 04:17:45;;;;;;;;;9.50;8.50;;;;;;;;116560;1203;25029;-62
2022/10/15 04:20:14;;;;;;;;;7.00;7.00;;;;;;;;116568;1210;24708;-62
2022/10/15 04:22:42;;;;;;;;;7.00;5.50;;;;;;;;116604;1202;25368;-62
2022/10/15 04:25:10;;;;;;;;;7.00;6.00;;;;;;;;116527;1206;25258;-62
2022/10/15 04:27:38;;;;;;;;;8.00;7.00;;;;;;;;116569;1200;25620;-63
2022/10/15 04:30:07;;;;;;;;;8.00;7.00;;;;;;;;116559;1198;24789;-62
2022/10/15 04:32:35;;;;;;;;;10.00;9.00;;;;;;;;116584;1200;25134;-62
2022/10/15 04:35:04;;;;;;;;;7.00;7.00;;;;;;;;116590;1206;24992;-62
2022/10/15 04:37:33;;;;;;;;;7.00;6.00;;;;;;;;116559;1206;25362;-62
2022/10/15 04:40:03;;;;;;;;;4.50;4.00;;;;;;;;116567;1202;24705;-62
2022/10/15 04:42:32;;;;;;;;;7.00;6.00;;;;;;;;116552;1198;25034;-62
2022/10/15 04:45:00;;;;;;;;;7.00;6.00;;;;;;;;116598;1200;25725;-62
2022/10/15 04:47:28;;;;;;;;;7.00;7.00;;;;;;;;116563;1209;25103;-62
2022/10/15 04:49:57;;;;;;;;;9.00;6.00;;;;;;;;116568;1211;25036;-62
2022/10/15 04:52:25;;;;;;;;;6.00;6.00;;;;;;;;116585;1206;25465;-62
2022/10/15 04:54:54;;;;;;;;;6.00;6.00;;;;;;;;116579;1203;24906;-62
2022/10/15 04:57:22;;;;;;;;;7.00;7.00;;;;;;;;116576;1196;25284;-62
2022/10/15 04:59:51;;;;;;;;;7.00;7.00;;;;;;;;116567;1206;25377;-62
2022/10/15 05:02:24;;;;;;;;;;;;;;;;;;116852;1206;25061;-62
2022/10/15 05:04:53;;;;;;;;;5.00;3.00;;;;;;;;116556;1200;25556;-62
2022/10/15 05:07:21;;;;;;;;;5.00;4.00;;;;;;;;116462;1211;25249;-62
2022/10/15 05:09:50;;;;;;;;;6.00;6.00;;;;;;;;116583;1209;25299;-62
2022/10/15 05:12:19;;;;;;;;;7.00;6.00;;;;;;;;116564;1206;26461;-62
2022/10/15 05:14:47;;;;;;;;;6.00;6.00;;;;;;;;116541;1209;25076;-62
2022/10/15 05:17:15;;;;;;;;;8.00;6.00;;;;;;;;116518;1201;25623;-62
2022/10/15 05:19:43;;;;;;;;;7.00;7.00;;;;;;;;116531;1211;25582;-62
2022/10/15 05:22:12;;;;;;;;;6.25;5.50;;;;;;;;116415;1203;24856;-62
2022/10/15 05:24:40;;;;;;;;;7.00;6.50;;;;;;;;116430;1200;24960;-62
2022/10/15 05:27:08;;;;;;;;;7.67;7.33;;;;;;;;116443;1202;25517;-62
2022/10/15 05:29:38;;;;;;;;;6.00;5.00;;;;;;;;116415;1205;25740;-62
2022/10/15 05:32:07;;;;;;;;;7.25;5.50;;;;;;;;116419;1211;25515;-62
2022/10/15 05:34:35;;;;;;;;;7.00;6.00;;;;;;;;116388;1192;25483;-62
2022/10/15 05:37:03;;;;;;;;;7.00;5.00;;;;;;;;116425;1211;24706;-62
2022/10/15 05:39:31;;;;;;;;;6.50;5.00;;;;;;;;116423;1198;25148;-62
2022/10/15 05:42:00;;;;;;;;;6.00;5.00;;;;;;;;116578;1208;25375;-62
2022/10/15 05:44:28;;;;;;;;;6.50;6.00;;;;;;;;116407;1209;25039;-61
2022/10/15 05:46:56;;;;;;;;;10.00;7.00;;;;;;;;116466;1202;24835;-62
2022/10/15 05:49:24;;;;;;;;;8.50;6.25;;;;;;;;116443;1209;24774;-61
2022/10/15 05:51:52;;;;;;;;;9.00;7.50;;;;;;;;116416;1203;25608;-61
2022/10/15 05:54:25;;;;;;;;;7.00;7.00;;;;;;;;116414;1198;25140;-61
2022/10/15 05:56:54;;;;;;;;;10.67;6.67;;;;;;;;116403;1211;24983;-61
2022/10/15 05:59:22;;;;;;;;;4.00;4.00;;;;;;;;116361;1200;25592;-62
2022/10/15 06:01:50;;;;;;;;;4.50;4.00;;;;;;;;116442;1204;24841;-62
2022/10/15 06:04:18;;;;;;;;;7.33;7.33;;;;;;;;116420;1201;25810;-62
2022/10/15 06:06:47;;;;;;;;;7.00;7.00;;;;;;;;116398;1208;25599;-62
2022/10/15 06:09:15;;;;;;;;;4.00;4.00;;;;;;;;116404;1197;25081;-62
2022/10/15 06:11:43;;;;;;;;;5.50;4.00;;;;;;;;116561;1199;25669;-63
2022/10/15 06:14:12;;;;;;;;;5.00;4.00;;;;;;;;116459;1203;25520;-62
2022/10/15 06:16:40;;;;;;;;;7.00;7.00;;;;;;;;116474;1202;25410;-62
2022/10/15 06:19:09;;;;;;;;;8.00;6.00;;;;;;;;116548;1209;25132;-61
2022/10/15 06:21:37;;;;;;;;;10.00;6.00;;;;;;;;116794;1195;25161;-62
2022/10/15 06:24:05;;;;;;;;;3.00;3.00;;;;;;;;116426;1203;25204;-62
2022/10/15 06:26:37;;;;;;;;;6.00;6.00;;;;;;;;116450;1211;24746;-61
2022/10/15 06:29:05;;;;;;;;;9.00;6.00;;;;;;;;116517;1195;25355;-62
2022/10/15 06:31:33;;;;;;;;;4.00;4.00;;;;;;;;116504;1203;25549;-61
2022/10/15 06:34:01;;;;;;;;;5.50;5.50;;;;;;;;116524;1199;25666;-61
2022/10/15 06:36:30;;;;;;;;;6.50;6.50;;;;;;;;116431;1202;25870;-61
2022/10/15 06:38:58;;;;;;;;;7.50;6.50;;;;;;;;116439;1201;25268;-62
2022/10/15 06:41:26;;;;;;;;;7.00;7.00;;;;;;;;116412;1202;24832;-62
2022/10/15 06:43:55;;;;;;;;;8.00;7.00;;;;;;;;116438;1199;25593;-63
2022/10/15 06:46:23;;;;;;;;;6.50;6.50;;;;;;;;116543;1210;25064;-64
2022/10/15 06:48:53;;;;;;;;;4.00;4.00;;;;;;;;116469;1200;25053;-64
2022/10/15 06:51:21;;;;;;;;;7.00;7.00;;;;;;;;116559;1197;25097;-65
2022/10/15 06:53:49;;;;;;;;;7.00;6.00;;;;;;;;116539;1192;25535;-65
2022/10/15 06:56:17;;;;;;;;;8.50;7.00;;;;;;;;116567;1202;24802;-65
2022/10/15 06:58:46;;;;;;;;;8.00;5.00;;;;;;;;116478;1202;25527;-62
2022/10/15 07:01:14;;;;;;;;;6.00;6.00;;;;;;;;116419;1203;25626;-63
2022/10/15 07:03:42;;;;;;;;;9.00;5.00;;;;;;;;116443;1211;24840;-63
2022/10/15 07:06:10;;;;;;;;;11.00;9.00;;;;;;;;116421;1200;25040;-66
2022/10/15 07:08:39;;;;;;;;;7.00;5.00;;;;;;;;116495;1203;25666;-64
2022/10/15 07:11:08;;;;;;;;;6.50;5.00;;;;;;;;116390;1206;25579;-65
2022/10/15 07:13:37;;;;;;;;;4.00;4.00;;;;;;;;116537;1202;25764;-65
2022/10/15 07:16:09;;;;;;;;;7.00;6.00;;;;;;;;116500;1201;25348;-66
2022/10/15 07:18:38;;;;;;;;;5.00;3.50;;;;;;;;116405;1202;24783;-66
2022/10/15 07:21:08;;;;;;;;;7.00;7.00;;;;;;;;116479;1206;24879;-66
2022/10/15 07:23:41;;;;;;;;;7.50;7.00;;;;;;;;116514;1203;25612;-70
2022/10/15 07:26:09;;;;;;;;;4.00;4.00;;;;;;;;116450;1200;25221;-68
2022/10/15 07:28:37;;;;;;;;;6.00;5.00;;;;;;;;116624;1200;25059;-63
2022/10/15 07:31:06;;;;;;;;;9.00;6.00;;;;;;;;116563;1208;25686;-68
2022/10/15 07:33:35;;;;;;;;;7.00;7.00;;;;;;;;116466;1207;25257;-69
2022/10/15 07:36:07;;;;;;;;;7.00;6.00;;;;;;;;116506;1203;24721;-69
2022/10/15 07:38:36;;;;;;;;;8.00;7.00;;;;;;;;116441;1202;24718;-69
2022/10/15 07:41:05;;;;;;;;;5.00;5.00;;;;;;;;116402;1209;25277;-67
2022/10/15 07:43:34;;;;;;;;;8.00;7.00;;;;;;;;116512;1206;25167;-67
2022/10/15 07:46:03;;;;;;;;;9.00;6.00;;;;;;;;116550;1208;25551;-66
2022/10/15 07:48:31;;;;;;;;;11.67;7.67;;;;;;;;116547;1200;24766;-66
2022/10/15 07:51:02;;;;;;;;;6.50;6.50;;;;;;;;116542;1203;25559;-63
2022/10/15 07:53:31;;;;;;;;;7.00;4.00;;;;;;;;116551;1196;25456;-64
2022/10/15 07:56:01;;;;;;;;;8.00;6.00;;;;;;;;116513;1202;25543;-64
2022/10/15 07:58:30;;;;;;;;;7.00;5.00;;;;;;;;116542;1205;24983;-63
2022/10/15 08:01:01;;;;;;;;;6.00;6.00;;;;;;;;116410;1208;25493;-63
2022/10/15 08:03:29;;;;;;;;;7.00;7.00;;;;;;;;116516;1201;24868;-63
2022/10/15 08:06:05;;;;;;;;;4.00;4.00;;;;;;;;116818;1204;25594;-62
2022/10/15 08:08:34;;;;;;;;;4.00;3.00;;;;;;;;116518;1206;24676;-63
2022/10/15 08:11:11;;;;;;;;;8.00;6.00;;;;;;;;116534;1211;25307;-63
2022/10/15 08:13:41;;;;;;;;;8.67;5.33;;;;;;;;116511;1209;25388;-63
2022/10/15 08:16:11;;;;;;;;;8.00;7.00;;;;;;;;116539;1211;24942;-63
2022/10/15 08:18:39;;;;;;;;;5.00;5.00;;;;;;;;116517;1200;24788;-64
2022/10/15 08:21:08;;;;;;;;;9.00;6.00;;;;;;;;116565;1203;25264;-64
2022/10/15 08:23:36;;;;;;;;;6.00;5.50;;;;;;;;116526;1203;24818;-63
2022/10/15 08:26:04;;;;;;;;;8.00;6.25;;;;;;;;116531;1208;25754;-63
2022/10/15 08:28:33;;;;;;;;;7.50;5.00;;;;;;;;116543;1206;24733;-63
2022/10/15 08:31:03;;;;;;;;;3.00;3.00;;;;;;;;116470;1200;24902;-64
2022/10/15 08:33:34;;;;;;;;;6.50;6.50;;;;;;;;116382;1203;25886;-64
2022/10/15 08:36:06;;;;;;;;;6.00;5.00;;;;;;;;116423;1208;24800;-64
2022/10/15 08:38:35;;;;;;;;;5.00;5.00;;;;;;;;116406;1200;25521;-64
2022/10/15 08:41:10;;;;;;;;;5.00;2.00;;;;;;;;116413;1211;25268;-64
2022/10/15 08:43:42;;;;;;;;;5.50;4.00;;;;;;;;116450;1203;25773;-63
2022/10/15 08:46:15;;;;;;;;;8.00;3.00;;;;;;;;116438;1196;25060;-63
2022/10/15 08:48:53;;;;;;;;;6.00;6.00;;;;;;;;116405;1210;24898;-63
2022/10/15 08:51:24;;;;;;;;;8.67;6.33;;;;;;;;116431;1207;25892;-63
2022/10/15 08:53:58;;;;;;;;;6.00;6.00;;;;;;;;116391;1200;25020;-64
2022/10/15 08:56:30;;;;;;;;;8.00;5.00;;;;;;;;116403;1209;25515;-64
2022/10/15 08:59:26;;;;;;;;;7.00;4.00;;;;;;;;116590;1204;24755;-64
2022/10/15 09:01:55;;;;;;;;;6.00;6.00;;;;;;;;116428;1203;25164;-63
2022/10/15 09:04:31;;;;;;;;;8.50;5.50;;;;;;;;116424;1197;25350;-63
2022/10/15 09:07:34;;;;;;;;;12.00;7.50;;;;;;;;116515;1196;25590;-63
2022/10/15 09:10:09;;;;;;;;;5.00;5.00;;;;;;;;116423;1209;25168;-63
2022/10/15 09:12:52;;;;;;;;;5.00;5.00;;;;;;;;116551;1211;25402;-63
2022/10/15 09:15:22;;;;;;;;;7.00;7.00;;;;;;;;116538;1196;25045;-63
2022/10/15 09:17:54;;;;;;;;;7.00;6.00;;;;;;;;116385;1210;24898;-63
2022/10/15 09:20:32;;;;;;;;;8.00;6.00;;;;;;;;116433;1209;25448;-63
2022/10/15 09:23:01;;;;;;;;;7.67;5.33;;;;;;;;116428;1208;25556;-67
2022/10/15 09:25:35;;;;;;;;;6.00;6.00;;;;;;;;116407;1211;25245;-64
2022/10/15 09:28:13;;;;;;;;;6.00;3.00;;;;;;;;116410;1201;25184;-63
2022/10/15 09:30:48;;;;;;;;;6.67;6.00;;;;;;;;116414;1200;24852;-63
2022/10/15 09:33:31;;;;;;;;;7.00;6.00;;;;;;;;116400;1202;25349;-63
2022/10/15 09:36:22;;;;;;;;;6.00;6.00;;;;;;;;116576;1206;25229;-64
2022/10/15 09:38:56;;;;;;;;;7.00;6.00;;;;;;;;116556;1198;25142;-63
2022/10/15 09:41:55;;;;;;;;;10.00;4.50;;;;;;;;116575;1196;25594;-63
2022/10/15 09:44:29;;;;;;;;;9.00;5.50;;;;;;;;116540;1204;25135;-64
2022/10/15 09:46:58;;;;;;;;;6.50;6.50;;;;;;;;116424;1200;25338;-64
2022/10/15 09:49:27;;;;;;;;;6.00;6.00;;;;;;;;116406;1201;24712;-64
2022/10/15 09:52:05;;;;;;;;;7.00;5.00;;;;;;;;116421;1196;25621;-63
2022/10/15 09:54:49;;;;;;;;;4.00;4.00;;;;;;;;116406;1211;24706;-63
2022/10/15 09:57:19;;;;;;;;;7.50;5.00;;;;;;;;116406;1202;25681;-64
2022/10/15 09:59:53;;;;;;;;;4.00;2.00;;;;;;;;116411;1203;24787;-63
2022/10/15 10:02:24;;;;;;;;;6.00;4.50;;;;;;;;116533;1208;25558;-64
2022/10/15 10:04:53;;;;;;;;;9.00;6.00;;;;;;;;116391;1199;24974;-63
2022/10/15 10:07:31;;;;;;;;;9.00;5.50;;;;;;;;116526;1199;24783;-64
2022/10/15 10:10:09;;;;;;;;;8.00;5.50;;;;;;;;116428;1206;25504;-64
2022/10/15 10:12:37;;;;;;;;;6.67;3.67;;;;;;;;116434;1207;24963;-64
2022/10/15 10:15:21;;;;;;;;;4.67;4.33;;;;;;;;116437;1209;25336;-64
2022/10/15 10:17:53;;;;;;;;;5.00;5.00;;;;;;;;116540;1199;25672;-64
2022/10/15 10:20:24;;;;;;;;;6.00;6.00;;;;;;;;116403;1203;24891;-64
2022/10/15 10:22:57;;;;;;;;;6.00;5.00;;;;;;;;116412;1194;25432;-64
2022/10/15 10:25:26;;;;;;;;;5.00;5.00;;;;;;;;116443;1208;24820;-64
2022/10/15 10:28:24;;;;;;;;;7.00;7.00;;;;;;;;116533;1202;25026;-64
2022/10/15 10:30:55;;;;;;;;;5.00;4.00;;;;;;;;116314;1206;25581;-64
2022/10/15 10:33:37;;;;;;;;;4.00;4.00;;;;;;;;116555;1203;25336;-64
2022/10/15 10:36:07;;;;;;;;;5.50;4.00;;;;;;;;116388;1202;24976;-64
2022/10/15 10:38:40;;;;;;;;;2.50;2.50;;;;;;;;116423;1205;25323;-64
2022/10/15 10:41:10;;;;;;;;;5.00;4.00;;;;;;;;116464;1199;24981;-64
2022/10/15 10:43:40;;;;;;;;;8.00;5.50;;;;;;;;116427;1208;25172;-64
2022/10/15 10:46:14;;;;;;;;;4.00;4.00;;;;;;;;116533;1206;24801;-64
2022/10/15 10:48:45;;;;;;;;;7.50;5.50;;;;;;;;116546;1192;25146;-64
2022/10/15 10:51:25;;;;;;;;;4.50;4.50;;;;;;;;116445;1204;24938;-64
2022/10/15 10:54:05;;;;;;;;;5.00;5.00;;;;;;;;116379;1205;24972;-64
2022/10/15 10:56:39;;;;;;;;;5.00;3.00;;;;;;;;116426;1207;25766;-64
2022/10/15 10:59:17;;;;;;;;;5.00;5.00;;;;;;;;116464;1209;25451;-64
2022/10/15 11:01:45;;;;;;;;;8.75;5.00;;;;;;;;116432;1205;25228;-63
2022/10/15 11:04:23;;;;;;;;;6.50;6.50;;;;;;;;116403;1209;25228;-63
2022/10/15 11:06:55;;;;;;;;;5.50;4.00;;;;;;;;116400;1209;25235;-63
2022/10/15 11:09:26;;;;;;;;;6.00;6.00;;;;;;;;116446;1200;25058;-64
2022/10/15 11:12:19;;;;;;;;;7.00;5.50;;;;;;;;116557;1192;24855;-65
2022/10/15 11:15:03;;;;;;;;;5.00;4.00;;;;;;;;116458;1206;25528;-64
2022/10/15 11:18:19;;;;;;;;;5.00;5.00;;;;;;;;116528;1211;26122;-64
2022/10/15 11:21:10;;;;;;;;;10.00;5.00;;;;;;;;116254;1201;25573;-64
2022/10/15 11:23:50;;;;;;;;;5.00;5.00;;;;;;;;116448;1210;25487;-63
2022/10/15 11:26:53;;;;;;;;;5.50;5.50;;;;;;;;116549;1201;25014;-64
2022/10/15 11:30:03;;;;;;;;;6.00;4.00;;;;;;;;116566;1206;25512;-63
2022/10/15 11:32:52;;;;;;;;;6.50;6.50;;;;;;;;116426;1203;24861;-63
2022/10/15 11:35:42;;;;;;;;;7.50;5.00;;;;;;;;116532;1206;25647;-64
2022/10/15 11:38:44;;;;;;;;;5.00;5.00;;;;;;;;116833;1201;25195;-63
2022/10/15 11:41:23;;;;;;;;;6.50;4.00;;;;;;;;116548;1199;25327;-64
2022/10/15 11:44:00;;;;;;;;;6.00;4.00;;;;;;;;116550;1203;25198;-62
2022/10/15 11:46:46;;;;;;;;;5.50;5.50;;;;;;;;116395;1202;24943;-63
2022/10/15 11:49:46;;;;;;;;;3.50;3.50;;;;;;;;116427;1203;24731;-63
2022/10/15 11:52:36;;;;;;;;;4.00;4.00;;;;;;;;116433;1201;25308;-63
2022/10/15 11:55:18;;;;;;;;;6.00;6.00;;;;;;;;116431;1206;25619;-63
2022/10/15 11:57:49;;;;;;;;;9.00;5.00;;;;;;;;116580;1201;24923;-63
2022/10/15 12:00:31;;;;;;;;;4.00;2.00;;;;;;;;116377;1211;26543;-63
2022/10/15 12:03:01;;;;;;;;;;;;;;;;;;116373;1207;24878;-63
2022/10/15 12:05:39;;;;;;;;;5.50;5.50;;;;;;;;116374;1199;25330;-64
2022/10/15 12:08:09;;;;;;;;;6.00;5.25;;;;;;;;116391;1200;25826;-65
2022/10/15 12:10:52;;;;;;;;;6.00;5.00;;;;;;;;116399;1206;24725;-63
2022/10/15 12:13:32;;;;;;;;;4.50;3.75;;;;;;;;116413;1206;24951;-63
2022/10/15 12:16:24;;;;;;;;;6.00;6.00;;;;;;;;116379;1200;25084;-63
2022/10/15 12:19:11;;;;;;;;;6.00;6.00;;;;;;;;116410;1199;25738;-64
2022/10/15 12:21:54;;;;;;;;;7.50;6.50;;;;;;;;116450;1201;26279;-63
2022/10/15 12:24:37;;;;;;;;;7.00;5.00;;;;;;;;116394;1203;25041;-63
2022/10/15 12:27:18;;;;;;;;;5.50;5.50;;;;;;;;116378;1207;25344;-64
2022/10/15 12:29:49;;;;;;;;;7.50;6.00;;;;;;;;116408;1211;24957;-64
2022/10/15 12:32:47;;;;;;;;;3.00;2.00;;;;;;;;116483;1201;25492;-64
2022/10/15 12:35:33;;;;;;;;;7.00;5.00;;;;;;;;116428;1211;25589;-64
2022/10/15 12:38:25;;;;;;;;;6.00;6.00;;;;;;;;116392;1209;25539;-63
2022/10/15 12:40:59;;;;;;;;;7.33;5.33;;;;;;;;116400;1211;24968;-63
2022/10/15 12:43:28;;;;;;;;;7.00;7.00;;;;;;;;116432;1202;25608;-64
2022/10/15 12:46:03;;;;;;;;;7.00;5.00;;;;;;;;116498;1203;25121;-63
2022/10/15 12:48:40;;;;;;;;;6.00;6.00;;;;;;;;116451;1203;25418;-63
2022/10/15 12:51:20;;;;;;;;;7.00;5.00;;;;;;;;116417;1203;24923;-63
2022/10/15 12:53:51;;;;;;;;;4.67;4.33;;;;;;;;116514;1196;24961;-63
2022/10/15 12:56:45;;;;;;;;;6.00;5.50;;;;;;;;116418;1203;25688;-65
2022/10/15 12:59:43;;;;;;;;;5.50;4.50;;;;;;;;116521;1203;24954;-63
2022/10/15 13:02:40;;;;;;;;;6.00;4.00;;;;;;;;116476;1204;25163;-64
2022/10/15 13:05:26;;;;;;;;;6.00;6.00;;;;;;;;116413;1211;24706;-62
2022/10/15 13:07:56;;;;;;;;;5.00;5.00;;;;;;;;116381;1205;24809;-64
2022/10/15 13:10:32;;;;;;;;;6.00;4.00;;;;;;;;116516;1199;25572;-63
2022/10/15 13:13:03;;;;;;;;;5.50;5.50;;;;;;;;116413;1210;25348;-64
2022/10/15 13:15:32;;;;;;;;;5.00;4.50;;;;;;;;116427;1206;25742;-64
2022/10/15 13:18:10;;;;;;;;;7.00;6.50;;;;;;;;116439;1201;25058;-63
2022/10/15 13:20:43;;;;;;;;;6.00;6.00;;;;;;;;116371;1210;25284;-63
2022/10/15 13:23:27;;;;;;;;;6.00;5.50;;;;;;;;116433;1202;24836;-64
2022/10/15 13:26:15;;;;;;;;;5.00;5.00;;;;;;;;116430;1200;24917;-64
2022/10/15 13:28:43;;;;;;;;;6.00;6.00;;;;;;;;116383;1210;25319;-63
2022/10/15 13:31:23;;;;;;;;;7.00;6.00;;;;;;;;116412;1205;24801;-63
2022/10/15 13:34:12;;;;;;;;;5.00;5.00;;;;;;;;116414;1210;24675;-63
2022/10/15 13:36:40;;;;;;;;;7.00;7.00;;;;;;;;116420;1203;25091;-63
2022/10/15 13:39:31;;;;;;;;;4.50;4.50;;;;;;;;116431;1205;25374;-63
2022/10/15 13:42:21;;;;;;;;;6.00;6.00;;;;;;;;116406;1202;24747;-63
2022/10/15 13:45:01;;;;;;;;;7.50;5.50;;;;;;;;116437;1200;24867;-63
2022/10/15 13:47:40;;;;;;;;;5.00;4.00;;;;;;;;116451;1208;25268;-63
2022/10/15 13:50:24;;;;;;;;;7.67;6.00;;;;;;;;116430;1203;25675;-65
2022/10/15 13:53:04;;;;;;;;;6.67;4.00;;;;;;;;116422;1203;25574;-63
2022/10/15 13:55:35;;;;;;;;;5.00;5.00;;;;;;;;116453;1202;25243;-63
2022/10/15 13:58:25;;;;;;;;;5.50;5.50;;;;;;;;116413;1206;24919;-64
2022/10/15 14:01:00;;;;;;;;;5.00;5.00;;;;;;;;116550;1202;25028;-64
2022/10/15 14:03:30;;;;;;;;;7.67;6.00;;;;;;;;116433;1199;25133;-64
2022/10/15 14:06:22;;;;;;;;;2.67;2.67;;;;;;;;116410;1203;25334;-64
2022/10/15 14:08:53;;;;;;;;;7.00;7.00;;;;;;;;116418;1203;25223;-64
2022/10/15 14:11:22;;;;;;;;;9.25;7.50;;;;;;;;116446;1197;24760;-64
2022/10/15 14:13:52;;;;;;;;;5.00;5.00;;;;;;;;116411;1204;24963;-64
2022/10/15 14:16:23;;;;;;;;;9.00;6.00;;;;;;;;116400;1208;25630;-64
2022/10/15 14:19:05;;;;;;;;;6.00;6.00;;;;;;;;116411;1203;25589;-63
2022/10/15 14:21:35;;;;;;;;;5.00;5.00;;;;;;;;116440;1201;25207;-62
2022/10/15 14:24:14;;;;;;;;;7.00;3.00;;;;;;;;116391;1205;25714;-63
2022/10/15 14:26:43;;;;;;;;;6.00;6.00;;;;;;;;116425;1203;25735;-63
2022/10/15 14:29:21;;;;;;;;;5.00;5.00;;;;;;;;116390;1196;24951;-63
2022/10/15 14:31:49;;;;;;;;;7.00;6.50;;;;;;;;116448;1211;25600;-64
2022/10/15 14:34:29;;;;;;;;;10.00;6.00;;;;;;;;116401;1205;24832;-63
2022/10/15 14:36:57;;;;;;;;;5.00;5.00;;;;;;;;116395;1200;25064;-63
2022/10/15 14:39:28;;;;;;;;;10.75;6.00;;;;;;;;116414;1199;25554;-63
2022/10/15 14:42:25;;;;;;;;;8.50;5.50;;;;;;;;116518;1200;25408;-63
2022/10/15 14:44:54;;;;;;;;;4.00;4.00;;;;;;;;116424;1196;25556;-63
2022/10/15 14:47:25;;;;;;;;;5.50;3.50;;;;;;;;116443;1199;25628;-63
2022/10/15 14:49:55;;;;;;;;;6.67;5.67;;;;;;;;116420;1200;24947;-64
2022/10/15 14:52:24;;;;;;;;;3.50;3.50;;;;;;;;116432;1200;25501;-63
2022/10/15 14:55:05;;;;;;;;;6.00;6.00;;;;;;;;116422;1206;25623;-64
2022/10/15 14:57:41;;;;;;;;;8.00;5.00;;;;;;;;116433;1199;25364;-63
2022/10/15 15:00:33;;;;;;;;;4.50;4.50;;;;;;;;116563;1203;25529;-63
2022/10/15 15:03:04;;;;;;;;;6.00;6.00;;;;;;;;116404;1211;24867;-64
2022/10/15 15:05:51;;;;;;;;;7.00;5.50;;;;;;;;116426;1210;24983;-64
2022/10/15 15:08:20;;;;;;;;;5.33;5.33;;;;;;;;116395;1201;25625;-63